createdAt,value
2022-10-17T00:02:01.094Z,1009.99
2022-10-17T00:07:07.124Z,1010.02
2022-10-17T00:09:40.118Z,1010.04
2022-10-17T00:12:16.042Z,1010.06
2022-10-17T00:14:49.021Z,1010.09
2022-10-17T00:17:22.134Z,1010.11
2022-10-17T00:19:55.024Z,1010.14
2022-10-17T00:22:28.104Z,1010.15
2022-10-17T00:25:01.139Z,1010.16
2022-10-17T00:27:34.149Z,1010.18
2022-10-17T00:30:07.117Z,1010.19
2022-10-17T00:32:40.158Z,1010.20
2022-10-17T00:35:13.060Z,1010.21
2022-10-17T00:37:46.159Z,1010.22
2022-10-17T00:40:19.060Z,1010.23
2022-10-17T00:42:52.188Z,1010.25
2022-10-17T00:45:25.292Z,1010.27
2022-10-17T00:47:59.144Z,1010.30
2022-10-17T00:50:32.086Z,1010.32
2022-10-17T00:53:05.223Z,1010.35
2022-10-17T00:55:38.119Z,1010.38
2022-10-17T00:58:11.142Z,1010.38
2022-10-17T01:00:43.837Z,1010.39
2022-10-17T01:03:17.096Z,1010.41
2022-10-17T01:05:50.132Z,1010.40
2022-10-17T01:08:24.203Z,1010.40
2022-10-17T01:10:57.127Z,1010.40
2022-10-17T01:13:30.190Z,1010.40
2022-10-17T01:16:03.094Z,1010.41
2022-10-17T01:18:36.172Z,1010.42
2022-10-17T01:21:09.150Z,1010.43
2022-10-17T01:23:42.098Z,1010.44
2022-10-17T01:26:15.133Z,1010.45
2022-10-17T01:28:48.158Z,1010.45
2022-10-17T01:31:21.400Z,1010.46
2022-10-17T01:33:55.158Z,1010.45
2022-10-17T01:36:28.238Z,1010.45
2022-10-17T01:39:01.185Z,1010.44
2022-10-17T01:41:34.247Z,1010.43
2022-10-17T01:44:07.211Z,1010.41
2022-10-17T01:46:40.215Z,1010.40
2022-10-17T01:49:13.181Z,1010.39
2022-10-17T01:51:46.299Z,1010.38
2022-10-17T01:54:19.304Z,1010.37
2022-10-17T01:56:52.295Z,1010.35
2022-10-17T01:59:25.297Z,1010.34
2022-10-17T02:01:58.199Z,1010.32
2022-10-17T02:04:35.035Z,1010.28
2022-10-17T02:07:08.237Z,1010.27
2022-10-17T02:09:41.268Z,1010.26
2022-10-17T02:12:14.201Z,1010.26
2022-10-17T02:14:47.207Z,1010.25
2022-10-17T02:17:20.185Z,1010.26
2022-10-17T02:19:53.320Z,1010.25
2022-10-17T02:22:26.296Z,1010.23
2022-10-17T02:24:59.317Z,1010.23
2022-10-17T02:27:32.279Z,1010.22
2022-10-17T02:30:05.308Z,1010.19
2022-10-17T02:32:38.294Z,1010.20
2022-10-17T02:35:11.280Z,1010.20
2022-10-17T02:37:44.250Z,1010.21
2022-10-17T02:40:16.977Z,1010.21
2022-10-17T02:42:50.238Z,1010.21
2022-10-17T02:45:23.301Z,1010.23
2022-10-17T02:47:56.230Z,1010.23
2022-10-17T02:53:02.389Z,1010.25
2022-10-17T02:55:35.302Z,1010.27
2022-10-17T02:58:08.317Z,1010.29
2022-10-17T03:00:41.115Z,1010.31
2022-10-17T03:03:14.325Z,1010.32
2022-10-17T03:05:47.294Z,1010.34
2022-10-17T03:08:20.408Z,1010.37
2022-10-17T03:10:53.313Z,1010.39
2022-10-17T03:13:26.379Z,1010.39
2022-10-17T03:15:59.302Z,1010.41
2022-10-17T03:18:32.369Z,1010.42
2022-10-17T03:21:05.398Z,1010.45
2022-10-17T03:23:38.287Z,1010.47
2022-10-17T03:26:11.415Z,1010.49
2022-10-17T03:28:50.642Z,1010.51
2022-10-17T03:31:20.368Z,1010.55
2022-10-17T03:33:53.314Z,1010.55
2022-10-17T03:36:26.425Z,1010.55
2022-10-17T03:38:59.394Z,1010.57
2022-10-17T03:41:32.061Z,1010.57
2022-10-17T03:44:05.151Z,1010.58
2022-10-17T03:46:38.352Z,1010.59
2022-10-17T03:49:11.350Z,1010.60
2022-10-17T03:51:44.183Z,1010.62
2022-10-17T03:54:17.074Z,1010.63
2022-10-17T03:56:50.281Z,1010.64
2022-10-17T03:59:23.312Z,1010.66
2022-10-17T04:01:56.142Z,1010.68
2022-10-17T04:04:29.279Z,1010.72
2022-10-17T04:07:02.259Z,1010.75
2022-10-17T04:09:35.264Z,1010.79
2022-10-17T04:12:08.407Z,1010.83
2022-10-17T04:14:41.314Z,1010.87
2022-10-17T04:17:28.330Z,1010.91
2022-10-17T04:20:01.094Z,1010.93
2022-10-17T04:22:34.384Z,1010.93
2022-10-17T04:25:07.506Z,1010.93
2022-10-17T04:27:40.411Z,1010.93
2022-10-17T04:30:13.465Z,1010.96
2022-10-17T04:32:46.468Z,1010.98
2022-10-17T04:35:19.482Z,1011.01
2022-10-17T04:37:52.250Z,1011.01
2022-10-17T04:40:25.459Z,1011.03
2022-10-17T04:42:58.218Z,1011.04
2022-10-17T04:45:32.536Z,1011.04
2022-10-17T04:48:05.458Z,1011.03
2022-10-17T04:50:38.504Z,1011.02
2022-10-17T04:53:11.406Z,1011.00
2022-10-17T04:55:46.471Z,1011.00
2022-10-17T04:58:19.416Z,1010.97
2022-10-17T05:00:52.547Z,1010.97
2022-10-17T05:03:25.537Z,1010.97
2022-10-17T05:05:58.441Z,1010.97
2022-10-17T05:08:31.512Z,1010.98
2022-10-17T05:11:04.525Z,1011.02
2022-10-17T05:13:37.605Z,1011.03
2022-10-17T05:16:10.523Z,1011.05
2022-10-17T05:18:43.303Z,1011.08
2022-10-17T05:21:16.555Z,1011.11
2022-10-17T05:23:49.579Z,1011.14
2022-10-17T05:26:22.573Z,1011.15
2022-10-17T05:28:55.692Z,1011.16
2022-10-17T05:31:28.479Z,1011.19
2022-10-17T05:34:01.497Z,1011.20
2022-10-17T05:36:34.463Z,1011.20
2022-10-17T05:39:07.400Z,1011.22
2022-10-17T05:41:40.558Z,1011.24
2022-10-17T05:44:13.561Z,1011.24
2022-10-17T05:46:46.627Z,1011.24
2022-10-17T05:49:32.626Z,1011.27
2022-10-17T05:51:52.648Z,1011.25
2022-10-17T05:54:25.589Z,1011.28
2022-10-17T05:56:58.528Z,1011.28
2022-10-17T05:59:45.571Z,1011.31
2022-10-17T06:02:18.631Z,1011.34
2022-10-17T06:04:51.565Z,1011.35
2022-10-17T06:07:24.572Z,1011.35
2022-10-17T06:09:57.395Z,1011.35
2022-10-17T06:12:30.995Z,1011.36
2022-10-17T06:15:03.664Z,1011.39
2022-10-17T06:17:36.644Z,1011.39
2022-10-17T06:20:09.607Z,1011.41
2022-10-17T06:22:42.659Z,1011.43
2022-10-17T06:25:15.622Z,1011.46
2022-10-17T06:27:48.665Z,1011.48
2022-10-17T06:30:21.619Z,1011.52
2022-10-17T06:32:54.672Z,1011.55
2022-10-17T06:35:27.562Z,1011.58
2022-10-17T06:38:00.560Z,1011.62
2022-10-17T06:40:47.627Z,1011.66
2022-10-17T06:43:21.416Z,1011.70
2022-10-17T06:45:53.678Z,1011.75
2022-10-17T06:48:26.698Z,1011.77
2022-10-17T06:50:59.714Z,1011.81
2022-10-17T06:53:32.624Z,1011.84
2022-10-17T06:56:05.729Z,1011.86
2022-10-17T06:58:38.646Z,1011.89
2022-10-17T07:01:11.830Z,1011.94
2022-10-17T07:03:44.682Z,1011.96
2022-10-17T07:06:17.630Z,1011.99
2022-10-17T07:08:50.526Z,1012.01
2022-10-17T07:11:23.669Z,1012.03
2022-10-17T07:13:56.747Z,1012.05
2022-10-17T07:16:29.728Z,1012.05
2022-10-17T07:19:02.630Z,1012.06
2022-10-17T07:21:38.932Z,1012.06
2022-10-17T07:24:08.724Z,1012.08
2022-10-17T07:26:41.763Z,1012.10
2022-10-17T07:29:14.655Z,1012.11
2022-10-17T07:31:47.663Z,1012.13
2022-10-17T07:34:20.523Z,1012.12
2022-10-17T07:36:53.774Z,1012.14
2022-10-17T07:39:26.754Z,1012.17
2022-10-17T07:41:59.709Z,1012.21
2022-10-17T07:44:32.748Z,1012.24
2022-10-17T07:47:05.743Z,1012.27
2022-10-17T07:49:38.787Z,1012.30
2022-10-17T07:52:11.701Z,1012.33
2022-10-17T07:54:44.675Z,1012.35
2022-10-17T07:57:17.672Z,1012.38
2022-10-17T07:59:50.726Z,1012.40
2022-10-17T08:02:23.787Z,1012.42
2022-10-17T08:04:56.566Z,1012.45
2022-10-17T08:07:29.631Z,1012.47
2022-10-17T08:10:02.836Z,1012.49
2022-10-17T08:12:35.555Z,1012.51
2022-10-17T08:15:08.587Z,1012.51
2022-10-17T08:17:41.598Z,1012.51
2022-10-17T08:20:14.729Z,1012.50
2022-10-17T08:22:47.808Z,1012.50
2022-10-17T08:25:20.787Z,1012.50
2022-10-17T08:27:53.873Z,1012.50
2022-10-17T08:30:26.752Z,1012.48
2022-10-17T08:32:59.835Z,1012.46
2022-10-17T08:35:32.788Z,1012.46
2022-10-17T08:38:05.827Z,1012.47
2022-10-17T08:40:38.490Z,1012.47
2022-10-17T08:43:11.774Z,1012.48
2022-10-17T08:45:44.838Z,1012.49
2022-10-17T08:48:17.844Z,1012.50
2022-10-17T08:50:50.877Z,1012.50
2022-10-17T08:53:23.885Z,1012.50
2022-10-17T08:55:56.814Z,1012.50
2022-10-17T08:58:29.907Z,1012.49
2022-10-17T09:01:02.868Z,1012.48
2022-10-17T09:03:35.847Z,1012.49
2022-10-17T09:06:08.822Z,1012.47
2022-10-17T09:08:41.891Z,1012.48
2022-10-17T09:11:14.880Z,1012.47
2022-10-17T09:13:47.791Z,1012.47
2022-10-17T09:16:20.907Z,1012.47
2022-10-17T09:18:53.856Z,1012.47
2022-10-17T09:21:26.792Z,1012.47
2022-10-17T09:24:08.966Z,1012.49
2022-10-17T09:26:32.834Z,1012.51
2022-10-17T09:29:06.081Z,1012.53
2022-10-17T09:31:39.852Z,1012.56
2022-10-17T09:34:21.093Z,1012.56
2022-10-17T09:36:52.902Z,1012.57
2022-10-17T09:39:25.869Z,1012.57
2022-10-17T09:41:58.950Z,1012.57
2022-10-17T09:44:31.859Z,1012.57
2022-10-17T09:47:04.848Z,1012.56
2022-10-17T09:49:37.934Z,1012.56
2022-10-17T09:52:11.054Z,1012.54
2022-10-17T09:54:44.901Z,1012.53
2022-10-17T09:57:17.846Z,1012.52
2022-10-17T09:59:50.926Z,1012.53
2022-10-17T10:02:23.986Z,1012.57
2022-10-17T10:05:04.272Z,1012.58
2022-10-17T10:07:30.039Z,1012.61
2022-10-17T10:10:02.913Z,1012.64
2022-10-17T10:12:35.858Z,1012.67
2022-10-17T10:15:08.899Z,1012.73
2022-10-17T10:17:41.914Z,1012.77
2022-10-17T10:20:14.889Z,1012.80
2022-10-17T10:22:47.615Z,1012.82
2022-10-17T10:25:23.857Z,1012.83
2022-10-17T10:27:59.355Z,1012.85
2022-10-17T10:30:29.953Z,1012.86
2022-10-17T10:33:02.683Z,1012.87
2022-10-17T10:35:36.021Z,1012.86
2022-10-17T10:38:08.631Z,1012.84
2022-10-17T10:40:41.833Z,1012.83
2022-10-17T10:43:28.544Z,1012.81
2022-10-17T10:46:01.927Z,1012.79
2022-10-17T10:48:35.063Z,1012.79
2022-10-17T10:51:08.084Z,1012.78
2022-10-17T10:53:40.993Z,1012.77
2022-10-17T10:56:13.936Z,1012.77
2022-10-17T10:58:47.072Z,1012.79
2022-10-17T11:01:20.030Z,1012.80
2022-10-17T11:03:52.950Z,1012.81
2022-10-17T11:06:26.029Z,1012.84
2022-10-17T11:08:58.963Z,1012.85
2022-10-17T11:11:31.964Z,1012.86
2022-10-17T11:14:04.998Z,1012.85
2022-10-17T11:16:37.947Z,1012.87
2022-10-17T11:19:10.690Z,1012.87
2022-10-17T11:21:44.098Z,1012.87
2022-10-17T11:24:16.992Z,1012.88
2022-10-17T11:26:50.065Z,1012.88
2022-10-17T11:29:23.008Z,1012.89
2022-10-17T11:31:56.014Z,1012.91
2022-10-17T11:34:29.107Z,1012.95
2022-10-17T11:37:02.003Z,1012.97
2022-10-17T11:39:35.164Z,1012.97
2022-10-17T11:42:08.031Z,1012.98
2022-10-17T11:44:41.002Z,1012.99
2022-10-17T11:47:15.127Z,1013.00
2022-10-17T11:49:50.829Z,1012.99
2022-10-17T11:52:37.768Z,1013.00
2022-10-17T11:54:54.044Z,1012.99
2022-10-17T11:57:27.133Z,1012.99
2022-10-17T12:00:00.168Z,1012.99
2022-10-17T12:02:33.122Z,1012.99
2022-10-17T12:05:06.093Z,1013.00
2022-10-17T12:07:39.237Z,1013.01
2022-10-17T12:10:12.088Z,1013.02
2022-10-17T12:12:45.191Z,1013.02
2022-10-17T12:15:18.066Z,1013.02
2022-10-17T12:17:51.115Z,1013.00
2022-10-17T12:20:24.138Z,1012.99
2022-10-17T12:22:57.275Z,1012.98
2022-10-17T12:25:30.362Z,1012.97
2022-10-17T12:28:03.182Z,1012.98
2022-10-17T12:30:35.955Z,1012.95
2022-10-17T12:33:09.111Z,1012.92
2022-10-17T12:35:42.074Z,1012.92
2022-10-17T12:38:14.978Z,1012.92
2022-10-17T12:40:49.190Z,1012.92
2022-10-17T12:43:20.820Z,1012.91
2022-10-17T12:45:54.117Z,1012.93
2022-10-17T12:48:27.161Z,1012.93
2022-10-17T12:51:17.703Z,1012.93
2022-10-17T12:53:33.230Z,1012.92
2022-10-17T12:56:06.149Z,1012.89
2022-10-17T12:58:53.060Z,1012.88
2022-10-17T13:01:26.084Z,1012.89
2022-10-17T13:04:05.177Z,1012.89
2022-10-17T13:06:38.133Z,1012.87
2022-10-17T13:09:11.168Z,1012.86
2022-10-17T13:11:44.174Z,1012.85
2022-10-17T13:14:17.259Z,1012.83
2022-10-17T13:16:50.224Z,1012.83
2022-10-17T13:19:23.182Z,1012.84
2022-10-17T13:21:56.267Z,1012.85
2022-10-17T13:24:29.202Z,1012.87
2022-10-17T13:27:02.141Z,1012.90
2022-10-17T13:29:35.220Z,1012.92
2022-10-17T13:32:08.184Z,1012.93
2022-10-17T13:34:41.273Z,1012.94
2022-10-17T13:37:14.239Z,1012.97
2022-10-17T13:39:56.582Z,1013.00
2022-10-17T13:42:20.257Z,1013.02
2022-10-17T13:44:53.204Z,1013.05
2022-10-17T13:47:26.165Z,1013.07
2022-10-17T13:49:59.061Z,1013.10
2022-10-17T13:52:32.477Z,1013.10
2022-10-17T13:55:04.960Z,1013.12
2022-10-17T13:57:37.964Z,1013.12
2022-10-17T14:00:11.772Z,1013.13
2022-10-17T14:02:44.183Z,1013.14
2022-10-17T14:05:18.699Z,1013.15
2022-10-17T14:08:17.859Z,1013.15
2022-10-17T14:10:23.142Z,1013.16
2022-10-17T14:12:56.095Z,1013.15
2022-10-17T14:15:29.247Z,1013.15
2022-10-17T14:18:06.699Z,1013.15
2022-10-17T14:21:19.383Z,1013.16
2022-10-17T14:23:22.473Z,1013.15
2022-10-17T14:25:41.161Z,1013.15
2022-10-17T14:28:14.210Z,1013.15
2022-10-17T14:31:02.454Z,1013.15
2022-10-17T14:33:19.969Z,1013.16
2022-10-17T14:35:53.330Z,1013.16
2022-10-17T14:38:26.103Z,1013.17
2022-10-17T14:41:14.303Z,1013.20
2022-10-17T14:43:32.176Z,1013.21
2022-10-17T14:46:04.992Z,1013.23
2022-10-17T14:48:38.061Z,1013.26
2022-10-17T14:51:11.015Z,1013.28
2022-10-17T14:53:44.200Z,1013.31
2022-10-17T14:56:17.303Z,1013.33
2022-10-17T14:58:50.377Z,1013.37
2022-10-17T15:01:23.164Z,1013.40
2022-10-17T15:03:56.147Z,1013.44
2022-10-17T15:06:29.430Z,1013.46
2022-10-17T15:09:02.320Z,1013.49
2022-10-17T15:11:35.386Z,1013.51
2022-10-17T15:14:08.367Z,1013.52
2022-10-17T15:16:41.417Z,1013.55
2022-10-17T15:19:14.313Z,1013.56
2022-10-17T15:21:47.530Z,1013.57
2022-10-17T15:24:20.317Z,1013.59
2022-10-17T15:29:26.358Z,1013.61
2022-10-17T15:32:02.801Z,1013.63
2022-10-17T15:34:36.420Z,1013.64
2022-10-17T15:37:09.104Z,1013.65
2022-10-17T15:39:42.343Z,1013.66
2022-10-17T15:42:15.121Z,1013.66
2022-10-17T15:44:48.146Z,1013.66
2022-10-17T15:47:21.467Z,1013.66
2022-10-17T15:49:54.236Z,1013.66
2022-10-17T15:52:27.204Z,1013.67
2022-10-17T15:55:04.133Z,1013.67
2022-10-17T15:57:33.609Z,1013.67
2022-10-17T16:00:06.364Z,1013.67
2022-10-17T16:02:39.103Z,1013.68
2022-10-17T16:05:12.109Z,1013.68
2022-10-17T16:07:45.385Z,1013.70
2022-10-17T16:10:18.447Z,1013.72
2022-10-17T16:12:51.436Z,1013.74
2022-10-17T16:15:24.164Z,1013.75
2022-10-17T16:17:57.899Z,1013.76
2022-10-17T16:20:30.123Z,1013.78
2022-10-17T16:23:03.419Z,1013.79
2022-10-17T16:25:36.407Z,1013.79
2022-10-17T16:28:09.409Z,1013.80
2022-10-17T16:30:42.272Z,1013.82
2022-10-17T16:33:15.424Z,1013.84
2022-10-17T16:35:48.499Z,1013.83
2022-10-17T16:38:21.450Z,1013.83
2022-10-17T16:40:54.448Z,1013.85
2022-10-17T16:43:27.456Z,1013.85
2022-10-17T16:46:00.442Z,1013.87
2022-10-17T16:51:12.198Z,1013.91
2022-10-17T16:53:45.195Z,1013.94
2022-10-17T16:56:18.164Z,1013.98
2022-10-17T16:58:51.355Z,1014.00
2022-10-17T17:01:24.232Z,1014.03
2022-10-17T17:03:57.527Z,1014.07
2022-10-17T17:06:30.511Z,1014.09
2022-10-17T17:09:03.457Z,1014.12
2022-10-17T17:11:36.221Z,1014.14
2022-10-17T17:14:09.503Z,1014.17
2022-10-17T17:16:42.561Z,1014.19
2022-10-17T17:19:15.511Z,1014.23
2022-10-17T17:21:48.311Z,1014.25
2022-10-17T17:24:21.237Z,1014.28
2022-10-17T17:26:54.333Z,1014.30
2022-10-17T17:29:27.582Z,1014.33
2022-10-17T17:32:00.346Z,1014.35
2022-10-17T17:34:33.304Z,1014.35
2022-10-17T17:37:06.505Z,1014.36
2022-10-17T17:39:39.573Z,1014.37
2022-10-17T17:42:12.533Z,1014.39
2022-10-17T17:44:45.343Z,1014.38
2022-10-17T17:47:18.234Z,1014.38
2022-10-17T17:49:51.352Z,1014.38
2022-10-17T17:52:24.688Z,1014.40
2022-10-17T17:54:58.319Z,1014.41
2022-10-17T17:57:31.345Z,1014.42
2022-10-17T18:00:04.273Z,1014.43
2022-10-17T18:02:40.775Z,1014.45
2022-10-17T18:05:10.555Z,1014.49
2022-10-17T18:07:43.308Z,1014.52
2022-10-17T18:10:16.544Z,1014.57
2022-10-17T18:12:49.371Z,1014.61
2022-10-17T18:15:22.383Z,1014.64
2022-10-17T18:17:55.556Z,1014.66
2022-10-17T18:20:28.343Z,1014.68
2022-10-17T18:23:04.097Z,1014.71
2022-10-17T18:25:34.399Z,1014.71
2022-10-17T18:28:07.356Z,1014.73
2022-10-17T18:30:40.325Z,1014.72
2022-10-17T18:33:13.325Z,1014.74
2022-10-17T18:35:46.315Z,1014.74
2022-10-17T18:38:33.225Z,1014.75
2022-10-17T18:41:06.458Z,1014.75
2022-10-17T18:43:39.736Z,1014.76
2022-10-17T18:46:14.715Z,1014.76
2022-10-17T18:48:45.686Z,1014.74
2022-10-17T18:51:18.855Z,1014.74
2022-10-17T18:53:52.373Z,1014.74
2022-10-17T18:56:25.746Z,1014.76
2022-10-17T18:58:58.514Z,1014.77
2022-10-17T19:01:31.620Z,1014.77
2022-10-17T19:04:04.440Z,1014.78
2022-10-17T19:06:37.390Z,1014.79
2022-10-17T19:09:16.264Z,1014.80
2022-10-17T19:11:49.373Z,1014.80
2022-10-17T19:14:22.559Z,1014.83
2022-10-17T19:16:55.651Z,1014.83
2022-10-17T19:19:34.388Z,1014.84
2022-10-17T19:22:07.481Z,1014.84
2022-10-17T19:24:40.493Z,1014.84
2022-10-17T19:27:13.404Z,1014.82
2022-10-17T19:29:46.732Z,1014.81
2022-10-17T19:32:22.218Z,1014.80
2022-10-17T19:34:52.836Z,1014.78
2022-10-17T19:37:25.734Z,1014.76
2022-10-17T19:39:58.694Z,1014.74
2022-10-17T19:42:31.781Z,1014.74
2022-10-17T19:45:04.425Z,1014.74
2022-10-17T19:47:37.581Z,1014.72
2022-10-17T19:50:10.712Z,1014.71
2022-10-17T19:52:43.594Z,1014.70
2022-10-17T19:55:16.733Z,1014.70
2022-10-17T19:57:49.718Z,1014.70
2022-10-17T20:00:25.460Z,1014.70
2022-10-17T20:02:58.603Z,1014.71
2022-10-17T20:05:31.797Z,1014.70
2022-10-17T20:08:04.565Z,1014.70
2022-10-17T20:10:37.427Z,1014.70
2022-10-17T20:13:10.468Z,1014.71
2022-10-17T20:15:43.449Z,1014.69
2022-10-17T20:18:16.744Z,1014.68
2022-10-17T20:20:49.496Z,1014.67
2022-10-17T20:23:22.736Z,1014.68
2022-10-17T20:26:06.702Z,1014.66
2022-10-17T20:28:28.888Z,1014.66
2022-10-17T20:31:01.562Z,1014.66
2022-10-17T20:33:34.778Z,1014.66
2022-10-17T20:36:07.810Z,1014.66
2022-10-17T20:38:40.516Z,1014.65
2022-10-17T20:41:13.636Z,1014.67
2022-10-17T20:43:46.506Z,1014.67
2022-10-17T20:46:35.086Z,1014.67
2022-10-17T20:48:52.663Z,1014.69
2022-10-17T20:51:25.494Z,1014.69
2022-10-17T20:53:58.587Z,1014.69
2022-10-17T20:56:31.510Z,1014.69
2022-10-17T20:59:04.704Z,1014.70
2022-10-17T21:01:37.941Z,1014.70
2022-10-17T21:04:40.652Z,1014.71
2022-10-17T21:06:43.861Z,1014.70
2022-10-17T21:09:16.792Z,1014.72
2022-10-17T21:11:49.940Z,1014.73
2022-10-17T21:14:22.921Z,1014.73
2022-10-17T21:16:57.328Z,1014.74
2022-10-17T21:19:28.948Z,1014.75
2022-10-17T21:22:01.907Z,1014.79
2022-10-17T21:24:34.904Z,1014.80
2022-10-17T21:27:07.810Z,1014.83
2022-10-17T21:29:40.889Z,1014.87
2022-10-17T21:32:25.237Z,1014.88
2022-10-17T21:34:46.952Z,1014.90
2022-10-17T21:37:19.955Z,1014.90
2022-10-17T21:39:52.912Z,1014.88
2022-10-17T21:42:25.963Z,1014.85
2022-10-17T21:44:58.863Z,1014.83
2022-10-17T21:47:31.897Z,1014.81
2022-10-17T21:50:04.963Z,1014.81
2022-10-17T21:52:37.902Z,1014.81
2022-10-17T21:55:13.939Z,1014.81
2022-10-17T21:57:46.889Z,1014.80
2022-10-17T22:00:20.007Z,1014.80
2022-10-17T22:02:52.982Z,1014.81
2022-10-17T22:05:25.996Z,1014.82
2022-10-17T22:07:58.979Z,1014.84
2022-10-17T22:10:31.887Z,1014.84
2022-10-17T22:13:04.938Z,1014.85
2022-10-17T22:15:37.916Z,1014.87
2022-10-17T22:18:10.922Z,1014.89
2022-10-17T22:20:43.835Z,1014.89
2022-10-17T22:23:17.018Z,1014.87
2022-10-17T22:25:49.920Z,1014.87
2022-10-17T22:28:23.049Z,1014.87
2022-10-17T22:30:56.044Z,1014.84
2022-10-17T22:33:28.935Z,1014.84
2022-10-17T22:36:01.774Z,1014.82
2022-10-17T22:38:34.984Z,1014.81
2022-10-17T22:41:08.025Z,1014.78
2022-10-17T22:43:41.021Z,1014.77
2022-10-17T22:46:13.975Z,1014.77
2022-10-17T22:48:47.056Z,1014.75
2022-10-17T22:53:55.967Z,1014.74
2022-10-17T22:56:29.081Z,1014.73
2022-10-17T22:59:02.157Z,1014.70
2022-10-17T23:01:36.026Z,1014.69
2022-10-17T23:04:08.920Z,1014.67
2022-10-17T23:06:42.103Z,1014.66
2022-10-17T23:09:15.039Z,1014.64
2022-10-17T23:11:48.027Z,1014.64
2022-10-17T23:14:21.100Z,1014.64
2022-10-17T23:16:57.015Z,1014.66
2022-10-17T23:19:30.093Z,1014.67
2022-10-17T23:22:03.019Z,1014.69
2022-10-17T23:24:36.113Z,1014.69
2022-10-17T23:27:08.981Z,1014.67
2022-10-17T23:29:42.089Z,1014.68
2022-10-17T23:32:15.135Z,1014.69
2022-10-17T23:34:48.063Z,1014.68
2022-10-17T23:37:21.133Z,1014.67
2022-10-17T23:39:54.011Z,1014.66
2022-10-17T23:42:27.042Z,1014.67
2022-10-17T23:45:00.053Z,1014.66
2022-10-17T23:47:33.538Z,1014.65
2022-10-17T23:50:06.025Z,1014.65
2022-10-17T23:52:39.150Z,1014.63
2022-10-17T23:55:12.033Z,1014.59
2022-10-17T23:57:45.117Z,1014.58
